createdAt,value
2023-09-18T00:04:39.470Z,21.66
2023-09-18T00:09:42.216Z,21.92
2023-09-18T00:14:44.968Z,21.90
2023-09-18T00:19:47.825Z,21.78
2023-09-18T00:24:50.601Z,21.77
2023-09-18T00:29:53.845Z,21.57
2023-09-18T00:34:57.635Z,21.63
2023-09-18T00:40:00.598Z,21.76
2023-09-18T00:45:03.860Z,21.69
2023-09-18T00:50:08.441Z,21.63
2023-09-18T00:55:11.297Z,21.65
2023-09-18T01:00:18.859Z,21.72
2023-09-18T01:05:21.936Z,21.69
2023-09-18T01:10:31.639Z,21.79
2023-09-18T01:15:43.163Z,21.85
2023-09-18T01:20:46.652Z,21.77
2023-09-18T01:25:49.472Z,21.79
2023-09-18T01:30:52.307Z,21.60
2023-09-18T01:35:56.784Z,21.49
2023-09-18T01:40:59.740Z,21.38
2023-09-18T01:46:02.927Z,21.33
2023-09-18T01:51:05.734Z,21.17
2023-09-18T01:56:08.543Z,20.84
2023-09-18T02:01:11.600Z,20.74
2023-09-18T02:06:15.177Z,20.88
2023-09-18T02:11:18.179Z,20.84
2023-09-18T02:16:25.344Z,20.82
2023-09-18T02:21:28.716Z,20.76
2023-09-18T02:26:31.762Z,20.87
2023-09-18T02:31:34.670Z,20.75
2023-09-18T02:36:37.399Z,20.80
2023-09-18T02:41:40.213Z,20.81
2023-09-18T02:46:44.684Z,20.87
2023-09-18T02:51:47.640Z,20.91
2023-09-18T02:56:50.747Z,20.94
2023-09-18T03:01:53.521Z,20.91
2023-09-18T03:06:56.255Z,20.85
2023-09-18T03:11:59.080Z,20.83
2023-09-18T03:17:01.885Z,20.76
2023-09-18T03:22:05.240Z,20.80
2023-09-18T03:27:08.382Z,20.87
2023-09-18T03:32:13.815Z,20.83
2023-09-18T03:37:16.723Z,20.69
2023-09-18T03:42:19.492Z,20.53
2023-09-18T03:47:22.641Z,20.55
2023-09-18T03:52:25.408Z,20.43
2023-09-18T03:57:28.466Z,20.19
2023-09-18T04:02:31.675Z,20.21
2023-09-18T04:07:35.066Z,20.09
2023-09-18T04:12:37.894Z,20.04
2023-09-18T04:17:40.860Z,19.94
2023-09-18T04:22:51.609Z,20.09
2023-09-18T04:27:54.868Z,20.19
2023-09-18T04:32:59.401Z,20.28
2023-09-18T04:38:02.362Z,20.47
2023-09-18T04:43:05.533Z,20.59
2023-09-18T04:48:09.607Z,20.58
2023-09-18T04:53:14.077Z,20.46
2023-09-18T04:58:18.168Z,20.53
2023-09-18T05:03:21.423Z,20.66
2023-09-18T05:08:24.770Z,20.70
2023-09-18T05:13:27.594Z,20.91
2023-09-18T05:18:30.735Z,21.34
2023-09-18T05:23:33.708Z,21.77
2023-09-18T05:28:36.987Z,22.21
2023-09-18T05:33:39.759Z,22.82
2023-09-18T05:38:44.667Z,23.38
2023-09-18T05:43:48.011Z,22.73
2023-09-18T05:48:51.191Z,23.05
2023-09-18T05:53:54.449Z,23.97
2023-09-18T05:58:57.214Z,23.41
2023-09-18T06:04:00.119Z,23.11
2023-09-18T06:09:03.412Z,23.69
2023-09-18T06:14:06.363Z,24.95
2023-09-18T06:19:09.177Z,24.91
2023-09-18T06:24:12.060Z,25.11
2023-09-18T06:29:14.917Z,25.22
2023-09-18T06:34:19.371Z,25.15
2023-09-18T06:39:25.310Z,25.84
2023-09-18T06:44:28.231Z,26.91
2023-09-18T06:49:32.006Z,27.52
2023-09-18T06:54:34.825Z,27.95
2023-09-18T06:59:37.576Z,28.79
2023-09-18T07:04:46.717Z,29.24
2023-09-18T07:10:03.800Z,29.60
2023-09-18T07:15:08.616Z,30.15
2023-09-18T07:20:15.820Z,30.56
2023-09-18T07:25:19.153Z,30.81
2023-09-18T07:30:23.306Z,31.01
2023-09-18T07:35:27.039Z,31.57
2023-09-18T07:40:30.161Z,32.13
2023-09-18T07:45:32.974Z,32.88
2023-09-18T07:50:36.619Z,33.36
2023-09-18T07:55:39.485Z,33.86
2023-09-18T08:00:42.270Z,33.92
2023-09-18T08:05:46.243Z,34.06
2023-09-18T08:10:49.300Z,34.24
2023-09-18T08:15:52.349Z,34.58
2023-09-18T08:20:55.806Z,34.74
2023-09-18T08:25:59.615Z,35.04
2023-09-18T08:31:02.976Z,35.35
2023-09-18T08:36:05.772Z,34.97
2023-09-18T08:41:10.557Z,34.17
2023-09-18T08:46:14.164Z,34.61
2023-09-18T08:51:18.538Z,35.63
2023-09-18T08:56:22.850Z,36.48
2023-09-18T09:01:25.688Z,37.28
2023-09-18T09:06:28.623Z,37.66
2023-09-18T09:11:32.105Z,37.64
2023-09-18T09:16:36.694Z,37.72
2023-09-18T09:21:45.048Z,38.49
2023-09-18T09:26:59.883Z,39.33
2023-09-18T09:32:18.450Z,39.34
2023-09-18T09:37:32.333Z,37.66
2023-09-18T09:42:42.293Z,37.61
2023-09-18T09:47:45.743Z,38.18
2023-09-18T09:52:51.199Z,37.87
2023-09-18T09:58:01.216Z,37.60
2023-09-18T10:03:06.291Z,35.63
2023-09-18T10:08:14.103Z,35.80
2023-09-18T10:13:25.399Z,35.91
2023-09-18T10:18:40.010Z,37.43
2023-09-18T10:23:52.949Z,38.74
2023-09-18T10:29:01.104Z,38.96
2023-09-18T10:34:06.101Z,38.38
2023-09-18T10:39:13.410Z,38.41
2023-09-18T10:44:19.060Z,37.25
2023-09-18T10:49:22.759Z,37.85
2023-09-18T10:54:27.679Z,39.76
2023-09-18T10:59:33.067Z,40.17
2023-09-18T11:04:37.703Z,40.39
2023-09-18T11:09:46.331Z,41.49
2023-09-18T11:14:51.061Z,39.62
2023-09-18T11:20:26.288Z,39.35
2023-09-18T11:25:38.790Z,39.01
2023-09-18T11:30:51.613Z,37.82
2023-09-18T11:35:54.504Z,38.76
2023-09-18T11:40:58.401Z,39.59
2023-09-18T11:46:05.513Z,40.34
2023-09-18T11:51:12.289Z,40.00
2023-09-18T11:56:18.955Z,39.68
2023-09-18T12:01:23.990Z,39.51
2023-09-18T12:06:27.655Z,37.91
2023-09-18T12:11:31.281Z,36.24
2023-09-18T12:16:40.821Z,36.62
2023-09-18T12:21:48.431Z,36.92
2023-09-18T12:26:52.517Z,37.80
2023-09-18T12:31:56.727Z,38.43
2023-09-18T12:37:00.253Z,39.00
2023-09-18T12:42:04.422Z,39.06
2023-09-18T12:47:08.098Z,39.30
2023-09-18T12:52:12.117Z,38.74
2023-09-18T12:57:17.392Z,37.91
2023-09-18T13:02:20.394Z,37.48
2023-09-18T13:07:25.312Z,36.47
2023-09-18T13:12:55.789Z,35.28
2023-09-18T13:18:01.661Z,35.63
2023-09-18T13:23:05.346Z,36.50
2023-09-18T13:28:10.333Z,37.23
2023-09-18T13:33:17.121Z,36.08
2023-09-18T13:38:21.143Z,35.72
2023-09-18T13:43:24.302Z,35.36
2023-09-18T13:48:27.707Z,34.91
2023-09-18T13:53:31.149Z,34.26
2023-09-18T13:58:34.962Z,35.02
2023-09-18T14:03:38.197Z,36.03
2023-09-18T14:08:41.692Z,36.13
2023-09-18T14:13:44.741Z,35.11
2023-09-18T14:18:47.600Z,34.62
2023-09-18T14:23:50.882Z,32.56
2023-09-18T14:28:53.638Z,31.19
2023-09-18T14:33:58.857Z,31.31
2023-09-18T14:39:02.583Z,32.30
2023-09-18T14:44:10.420Z,33.29
2023-09-18T14:49:13.184Z,34.01
2023-09-18T14:54:16.497Z,34.01
2023-09-18T14:59:28.170Z,34.13
2023-09-18T15:04:42.968Z,33.83
2023-09-18T15:09:45.707Z,32.64
2023-09-18T15:14:48.589Z,31.56
2023-09-18T15:19:56.463Z,31.09
2023-09-18T15:25:00.908Z,30.56
2023-09-18T15:30:06.990Z,29.84
2023-09-18T15:35:11.472Z,29.21
2023-09-18T15:40:17.118Z,28.68
2023-09-18T15:45:20.048Z,28.19
2023-09-18T15:50:23.241Z,27.83
2023-09-18T15:55:27.354Z,27.38
2023-09-18T16:00:30.371Z,26.88
2023-09-18T16:05:33.203Z,26.48
2023-09-18T16:10:35.989Z,26.17
2023-09-18T16:15:38.753Z,25.96
2023-09-18T16:20:41.584Z,25.73
2023-09-18T16:25:44.489Z,25.46
2023-09-18T16:30:47.719Z,25.20
2023-09-18T16:35:50.937Z,24.94
2023-09-18T16:40:54.568Z,24.70
2023-09-18T16:45:57.965Z,24.47
2023-09-18T16:51:02.176Z,24.27
2023-09-18T16:56:05.418Z,24.07
2023-09-18T17:01:08.231Z,23.88
2023-09-18T17:06:11.645Z,23.71
2023-09-18T17:11:14.450Z,23.56
2023-09-18T17:16:20.446Z,23.43
2023-09-18T17:21:24.896Z,23.31
2023-09-18T17:26:28.864Z,23.21
2023-09-18T17:31:31.937Z,23.13
2023-09-18T17:36:41.190Z,23.05
2023-09-18T17:41:44.976Z,22.97
2023-09-18T17:46:48.729Z,22.88
2023-09-18T17:51:51.615Z,22.78
2023-09-18T17:56:54.948Z,22.67
2023-09-18T18:01:58.069Z,22.54
2023-09-18T18:07:01.704Z,22.42
2023-09-18T18:12:06.247Z,22.32
2023-09-18T18:17:09.068Z,22.23
2023-09-18T18:22:12.082Z,22.13
2023-09-18T18:27:14.925Z,22.02
2023-09-18T18:32:17.680Z,21.92
2023-09-18T18:37:21.033Z,21.82
2023-09-18T18:42:23.856Z,21.71
2023-09-18T18:47:26.662Z,21.61
2023-09-18T18:52:29.434Z,21.50
2023-09-18T18:57:32.274Z,21.41
2023-09-18T19:02:35.165Z,21.32
2023-09-18T19:07:38.319Z,21.23
2023-09-18T19:12:42.061Z,21.14
2023-09-18T19:17:45.561Z,21.06
2023-09-18T19:22:49.394Z,20.98
2023-09-18T19:27:52.178Z,20.89
2023-09-18T19:32:54.991Z,20.82
2023-09-18T19:37:59.625Z,20.75
2023-09-18T19:43:03.541Z,20.69
2023-09-18T19:48:07.323Z,20.63
2023-09-18T19:53:10.515Z,20.55
2023-09-18T19:58:15.688Z,20.47
2023-09-18T20:03:19.062Z,20.40
2023-09-18T20:08:22.146Z,20.33
2023-09-18T20:13:24.899Z,20.55
2023-09-18T20:18:27.778Z,21.53
2023-09-18T20:23:31.518Z,21.03
2023-09-18T20:28:35.884Z,20.60
2023-09-18T20:33:38.926Z,20.33
2023-09-18T20:38:41.915Z,20.18
2023-09-18T20:43:46.482Z,21.39
2023-09-18T20:48:49.510Z,22.12
2023-09-18T20:53:53.485Z,21.21
2023-09-18T20:58:57.777Z,20.61
2023-09-18T21:04:00.901Z,20.28
2023-09-18T21:09:04.017Z,21.39
2023-09-18T21:14:06.956Z,21.98
2023-09-18T21:19:09.752Z,21.08
2023-09-18T21:24:12.518Z,21.14
2023-09-18T21:29:15.358Z,22.08
2023-09-18T21:34:18.341Z,21.25
2023-09-18T21:39:22.403Z,21.44
2023-09-18T21:44:25.722Z,22.40
2023-09-18T21:49:28.803Z,21.62
2023-09-18T21:54:32.283Z,21.26
2023-09-18T21:59:35.094Z,22.34
2023-09-18T22:04:37.841Z,21.83
2023-09-18T22:09:45.563Z,21.18
2023-09-18T22:14:51.323Z,22.22
2023-09-18T22:19:54.918Z,21.94
2023-09-18T22:24:57.872Z,21.28
2023-09-18T22:30:00.751Z,22.30
2023-09-18T22:35:10.859Z,22.26
2023-09-18T22:40:14.126Z,21.42
2023-09-18T22:45:54.634Z,22.45
2023-09-18T22:51:37.397Z,22.28
2023-09-18T22:56:40.102Z,22.11
2023-09-18T23:01:43.100Z,22.75
2023-09-18T23:06:46.838Z,21.96
2023-09-18T23:11:49.614Z,23.03
2023-09-18T23:16:53.508Z,22.34
2023-09-18T23:21:56.258Z,22.01
2023-09-18T23:27:00.961Z,23.05
2023-09-18T23:32:04.530Z,22.09
2023-09-18T23:37:07.415Z,22.13
2023-09-18T23:42:10.408Z,23.28
2023-09-18T23:47:13.760Z,22.76
2023-09-18T23:52:17.469Z,22.11
2023-09-18T23:57:22.188Z,23.12
